Terminal Aerodrome Forecast
Issued by NWS Tallahassee, FL

Home | Current Version | Previous Version | Text Only | Print | Product List | Glossary On
Versions: 1 2 3 4 5 6 7 8 9 10 11 12 13
993
FTUS42 KTAE 261726
TAFTLH
TAF
KTLH 261726Z 2618/2718 06004KT P6SM VCTS BKN035CB
      TEMPO 2621/2624 VRB15G25KT 2SM TSRA SCT015 BKN030CB
     FM270100 00000KT P6SM SCT010=

USA.gov is the U.S. government's official web portal to all federal, state and local government web resources and services.